Time;durP1;ratioP1;P1;durP2;ratioP2;P2;SDS_P1;SDS_P2;PMS_P1;PMS_P2;Temp;Humidity;BMP_temperature;BMP_pressure;BME280_temperature;BME280_humidity;BME280_pressure;Samples;Min_cycle;Max_cycle;Signal;HPM_P1;HPM_P2
2021/04/03 00:02:01;;;;;;;4.32;2.28;;;5.70;99.90;;;;;;4865367;29;20418;-76
2021/04/03 00:04:27;;;;;;;2.47;1.93;;;5.70;99.90;;;;;;4837118;29;20414;-77
2021/04/03 00:06:52;;;;;;;2.67;2.13;;;5.70;99.90;;;;;;4832229;29;20473;-76
2021/04/03 00:09:18;;;;;;;2.92;2.13;;;5.70;99.90;;;;;;4852451;29;20411;-75
2021/04/03 00:11:44;;;;;;;3.47;2.10;;;5.70;99.90;;;;;;4852771;29;20805;-76
2021/04/03 00:14:09;;;;;;;3.40;2.25;;;5.60;99.90;;;;;;4828436;29;20414;-76
2021/04/03 00:16:35;;;;;;;2.28;2.08;;;5.70;99.90;;;;;;4835143;29;20416;-77
2021/04/03 00:19:01;;;;;;;5.23;2.27;;;5.60;99.90;;;;;;4865559;29;20982;-76
2021/04/03 00:21:26;;;;;;;2.83;2.20;;;5.60;99.90;;;;;;4821856;29;20785;-76
2021/04/03 00:23:52;;;;;;;2.27;2.07;;;5.60;99.90;;;;;;4817549;29;20410;-77
2021/04/03 00:26:17;;;;;;;3.50;2.27;;;5.60;99.90;;;;;;4817122;29;20436;-76
2021/04/03 00:28:44;;;;;;;2.40;1.95;;;5.60;99.90;;;;;;4836168;29;20435;-76
2021/04/03 00:31:09;;;;;;;2.65;2.13;;;5.60;99.90;;;;;;4858980;29;20517;-77
2021/04/03 00:33:35;;;;;;;2.30;2.10;;;5.60;99.90;;;;;;4834125;29;20507;-76
2021/04/03 00:36:01;;;;;;;3.67;2.43;;;5.60;99.90;;;;;;4820280;29;20424;-77
2021/04/03 00:38:26;;;;;;;3.20;2.20;;;5.60;99.90;;;;;;4841791;29;20474;-76
2021/04/03 00:40:52;;;;;;;3.93;2.20;;;5.60;99.90;;;;;;4823474;29;20911;-77
2021/04/03 00:43:19;;;;;;;3.20;2.30;;;5.60;99.90;;;;;;4802036;29;20443;-76
2021/04/03 00:45:45;;;;;;;2.00;1.90;;;5.60;99.90;;;;;;4823464;29;20930;-76
2021/04/03 00:48:11;;;;;;;2.30;2.10;;;5.60;99.90;;;;;;4806491;29;20857;-76
2021/04/03 00:50:42;;;;;;;2.67;2.30;;;5.60;99.90;;;;;;4835744;29;20766;-77
2021/04/03 00:53:09;;;;;;;2.20;2.08;;;5.60;99.90;;;;;;4839760;29;20505;-77
2021/04/03 00:55:37;;;;;;;2.42;1.92;;;5.60;99.90;;;;;;4821424;29;20468;-76
2021/04/03 00:58:03;;;;;;;2.72;2.10;;;5.60;99.90;;;;;;4824496;29;20942;-76
2021/04/03 01:00:28;;;;;;;2.38;2.13;;;5.60;99.90;;;;;;4838776;29;20418;-77
2021/04/03 01:02:55;;;;;;;3.83;2.25;;;5.50;99.90;;;;;;4818541;29;20419;-76
2021/04/03 01:05:23;;;;;;;2.83;2.38;;;5.50;99.90;;;;;;4820825;29;20789;-76
2021/04/03 01:07:52;;;;;;;1.98;1.88;;;5.50;99.90;;;;;;4831318;29;21088;-76
2021/04/03 01:10:23;;;;;;;3.80;2.40;;;5.50;99.90;;;;;;4833726;29;20926;-77
2021/04/03 01:12:56;;;;;;;2.95;2.33;;;5.50;99.90;;;;;;4814445;29;20402;-77
2021/04/03 01:15:33;;;;;;;2.78;2.13;;;5.50;99.90;;;;;;4824075;29;20415;-76
2021/04/03 01:18:07;;;;;;;2.73;2.33;;;5.50;99.90;;;;;;4853559;29;20430;-77
2021/04/03 01:20:38;;;;;;;2.58;2.33;;;5.50;99.90;;;;;;4830013;29;20429;-76
2021/04/03 01:23:34;;;;;;;4.10;2.40;;;5.50;99.90;;;;;;4848852;29;20852;-77
2021/04/03 01:26:25;;;;;;;2.63;2.25;;;5.50;99.90;;;;;;4832163;29;20519;-76
2021/04/03 01:29:19;;;;;;;2.97;2.70;;;5.50;99.90;;;;;;4838389;29;20424;-77
2021/04/03 01:31:46;;;;;;;2.47;2.20;;;5.40;99.90;;;;;;4851648;29;20477;-76
2021/04/03 01:34:17;;;;;;;2.28;2.10;;;5.40;99.90;;;;;;4835462;29;20420;-76
2021/04/03 01:36:43;;;;;;;2.63;2.43;;;5.40;99.90;;;;;;4800811;29;20448;-76
2021/04/03 01:39:28;;;;;;;2.57;2.10;;;5.40;99.90;;;;;;4861746;29;20450;-77
2021/04/03 01:41:54;;;;;;;2.50;2.20;;;5.40;99.90;;;;;;4844111;29;20490;-77
2021/04/03 01:44:24;;;;;;;3.15;2.10;;;5.40;99.90;;;;;;4835704;29;20421;-76
2021/04/03 01:46:52;;;;;;;3.10;2.60;;;5.40;99.90;;;;;;4848627;29;20513;-76
2021/04/03 01:49:21;;;;;;;3.15;2.80;;;5.40;99.90;;;;;;4815969;29;20413;-76
2021/04/03 01:51:48;;;;;;;3.37;2.53;;;5.30;99.90;;;;;;4838313;29;20398;-76
2021/04/03 01:54:18;;;;;;;3.70;2.50;;;5.30;99.90;;;;;;4824484;29;20407;-76
2021/04/03 01:56:47;;;;;;;2.55;2.22;;;5.30;99.90;;;;;;4839308;29;21122;-76
2021/04/03 01:59:15;;;;;;;5.68;2.78;;;5.30;99.90;;;;;;4834837;29;20950;-76
2021/04/03 02:01:44;;;;;;;3.40;2.53;;;5.30;99.90;;;;;;4816319;29;20421;-77
2021/04/03 02:04:13;;;;;;;2.75;2.55;;;5.20;99.90;;;;;;4838337;29;20416;-76
2021/04/03 02:06:43;;;;;;;2.83;2.58;;;5.20;99.90;;;;;;4859320;29;20418;-76
2021/04/03 02:09:20;;;;;;;4.28;2.78;;;5.20;99.90;;;;;;4811170;29;20415;-76
2021/04/03 02:11:50;;;;;;;3.20;2.60;;;5.20;99.90;;;;;;4806699;29;20411;-76
2021/04/03 02:14:42;;;;;;;2.40;2.20;;;5.10;99.90;;;;;;4818491;29;20410;-76
2021/04/03 02:17:13;;;;;;;2.65;2.45;;;5.10;99.90;;;;;;4828033;29;20414;-76
2021/04/03 02:19:40;;;;;;;2.63;2.38;;;5.10;99.90;;;;;;4823122;29;20431;-76
2021/04/03 02:22:11;;;;;;;2.85;2.63;;;5.10;99.90;;;;;;4828102;29;20422;-77
2021/04/03 02:24:37;;;;;;;2.85;2.60;;;5.10;99.90;;;;;;4854668;29;20425;-76
2021/04/03 02:27:05;;;;;;;2.83;2.53;;;5.10;99.90;;;;;;4838601;29;20895;-76
2021/04/03 02:29:31;;;;;;;2.60;2.23;;;5.10;99.90;;;;;;4823276;29;20416;-76
2021/04/03 02:31:58;;;;;;;2.75;2.38;;;5.10;99.90;;;;;;4856512;29;20444;-78
2021/04/03 02:34:24;;;;;;;3.53;2.60;;;5.10;99.90;;;;;;4836022;29;20406;-75
2021/04/03 02:36:50;;;;;;;3.78;2.50;;;5.10;99.90;;;;;;4805668;29;20408;-76
2021/04/03 02:39:15;;;;;;;4.72;2.90;;;5.00;99.90;;;;;;4848437;29;20498;-78
2021/04/03 02:42:02;;;;;;;2.30;2.10;;;5.00;99.90;;;;;;4834232;29;20914;-77
2021/04/03 02:44:37;;;;;;;2.77;2.37;;;4.90;99.90;;;;;;4825114;29;20421;-77
2021/04/03 02:47:16;;;;;;;3.88;2.40;;;5.00;99.90;;;;;;4871700;29;20966;-77
2021/04/03 02:49:45;;;;;;;2.97;2.15;;;4.80;99.90;;;;;;4804805;29;20498;-76
2021/04/03 02:52:12;;;;;;;3.08;2.78;;;4.80;99.90;;;;;;4790894;29;21007;-77
2021/04/03 02:54:38;;;;;;;2.50;2.30;;;4.70;99.90;;;;;;4810534;29;20451;-76
2021/04/03 02:57:04;;;;;;;2.45;2.25;;;4.70;99.90;;;;;;4824291;29;20416;-76
2021/04/03 02:59:32;;;;;;;2.88;2.50;;;4.70;99.90;;;;;;4807826;29;20484;-76
2021/04/03 03:02:00;;;;;;;3.30;2.43;;;4.60;99.90;;;;;;4822365;29;20492;-77
2021/04/03 03:04:26;;;;;;;2.83;2.33;;;4.60;99.90;;;;;;4825059;29;20419;-75
2021/04/03 03:06:53;;;;;;;2.60;2.05;;;4.60;99.90;;;;;;4841677;29;20760;-77
2021/04/03 03:09:19;;;;;;;3.03;2.60;;;4.60;99.90;;;;;;4823941;29;20420;-76
2021/04/03 03:11:48;;;;;;;3.83;2.53;;;4.50;99.90;;;;;;4850645;29;20404;-76
2021/04/03 03:14:16;;;;;;;2.60;2.40;;;4.40;99.90;;;;;;4839582;29;20427;-77
2021/04/03 03:16:42;;;;;;;4.03;2.47;;;4.40;99.90;;;;;;4824470;29;20504;-76
2021/04/03 03:19:09;;;;;;;2.60;2.40;;;4.30;99.90;;;;;;4825837;29;20414;-76
2021/04/03 03:21:36;;;;;;;3.40;2.53;;;4.30;99.90;;;;;;4819731;29;20418;-77
2021/04/03 03:24:06;;;;;;;2.97;2.67;;;4.20;99.90;;;;;;4822813;29;20493;-77
2021/04/03 03:26:33;;;;;;;2.55;2.35;;;4.20;99.90;;;;;;4833353;29;20449;-76
2021/04/03 03:29:02;;;;;;;3.00;2.47;;;4.10;99.90;;;;;;4833330;29;20501;-77
2021/04/03 03:31:28;;;;;;;3.92;2.30;;;4.10;99.90;;;;;;4815454;29;20426;-76
2021/04/03 03:33:56;;;;;;;2.85;2.47;;;4.10;99.90;;;;;;4837920;29;20491;-76
2021/04/03 03:36:23;;;;;;;2.75;2.30;;;4.10;99.90;;;;;;4834860;29;20429;-76
2021/04/03 03:38:50;;;;;;;2.65;2.45;;;4.10;99.90;;;;;;4841360;29;20497;-76
2021/04/03 03:41:16;;;;;;;2.60;2.40;;;4.00;99.90;;;;;;4809300;29;20556;-76
2021/04/03 03:43:43;;;;;;;3.42;2.42;;;4.00;99.90;;;;;;4822895;29;20418;-76
2021/04/03 03:46:08;;;;;;;2.90;2.40;;;4.00;99.90;;;;;;4839845;29;20486;-77
2021/04/03 03:48:36;;;;;;;3.63;2.33;;;3.90;99.90;;;;;;4850287;29;20432;-76
2021/04/03 03:51:02;;;;;;;3.00;2.37;;;3.90;99.90;;;;;;4820628;29;20920;-76
2021/04/03 03:53:34;;;;;;;2.38;2.17;;;3.80;99.90;;;;;;4806499;29;20403;-77
2021/04/03 03:56:01;;;;;;;2.60;2.40;;;3.80;99.90;;;;;;4817794;29;20445;-76
2021/04/03 03:58:26;;;;;;;5.07;2.50;;;3.80;99.90;;;;;;4820979;29;20420;-76
2021/04/03 04:00:52;;;;;;;4.07;2.70;;;3.80;99.90;;;;;;4809774;29;20410;-76
2021/04/03 04:03:21;;;;;;;3.75;2.60;;;3.70;99.90;;;;;;4823210;29;20410;-75
2021/04/03 04:05:51;;;;;;;2.88;2.53;;;3.70;99.90;;;;;;4843033;29;20412;-76
2021/04/03 04:08:21;;;;;;;3.08;2.60;;;3.60;99.90;;;;;;4822323;29;20425;-77
2021/04/03 04:10:52;;;;;;;2.90;2.70;;;3.60;99.90;;;;;;4847930;29;20418;-76
2021/04/03 04:13:19;;;;;;;2.72;2.45;;;3.60;99.90;;;;;;4839729;29;20475;-76
2021/04/03 04:15:46;;;;;;;2.72;2.28;;;3.60;99.90;;;;;;4825778;29;20414;-76
2021/04/03 04:18:11;;;;;;;2.70;2.50;;;3.50;99.90;;;;;;4838486;29;20931;-76
2021/04/03 04:20:38;;;;;;;2.53;2.33;;;3.50;99.90;;;;;;4827923;29;20500;-77
2021/04/03 04:23:10;;;;;;;2.85;2.50;;;3.50;99.90;;;;;;4829296;29;20412;-76
2021/04/03 04:25:41;;;;;;;2.97;2.30;;;3.50;99.90;;;;;;4836529;29;20440;-76
2021/04/03 04:28:10;;;;;;;3.20;2.90;;;3.40;99.90;;;;;;4821848;29;20506;-76
2021/04/03 04:30:36;;;;;;;2.55;2.35;;;3.30;99.90;;;;;;4837154;29;20430;-76
2021/04/03 04:33:07;;;;;;;2.60;2.40;;;3.30;99.90;;;;;;4818601;29;20426;-76
2021/04/03 04:35:32;;;;;;;2.90;2.10;;;3.30;99.90;;;;;;4839390;29;20482;-76
2021/04/03 04:38:00;;;;;;;3.40;2.72;;;3.20;99.90;;;;;;4827058;29;21013;-77
2021/04/03 04:40:31;;;;;;;2.80;2.53;;;3.20;99.90;;;;;;4852538;29;20425;-76
2021/04/03 04:42:58;;;;;;;2.50;2.00;;;3.20;99.90;;;;;;4804198;29;20476;-77
2021/04/03 04:45:27;;;;;;;2.90;2.60;;;3.20;99.90;;;;;;4811612;29;20862;-76
2021/04/03 04:47:54;;;;;;;2.60;2.40;;;3.20;99.90;;;;;;4822285;29;21197;-76
2021/04/03 04:50:20;;;;;;;4.95;2.58;;;3.10;99.90;;;;;;4825377;29;20503;-76
2021/04/03 04:52:47;;;;;;;4.30;2.40;;;3.10;99.90;;;;;;4844683;29;20409;-77
2021/04/03 04:55:14;;;;;;;3.60;2.55;;;3.10;99.90;;;;;;4834645;29;20497;-76
2021/04/03 04:57:42;;;;;;;3.13;2.83;;;3.10;99.90;;;;;;4845235;29;20431;-76
2021/04/03 05:00:13;;;;;;;2.47;2.28;;;3.10;99.90;;;;;;4845760;29;20420;-77
2021/04/03 05:02:56;;;;;;;2.40;2.20;;;3.00;99.90;;;;;;4835525;29;20852;-77
2021/04/03 05:05:21;;;;;;;2.90;2.60;;;3.00;99.90;;;;;;4802193;29;20968;-76
2021/04/03 05:07:47;;;;;;;7.13;2.75;;;3.00;99.90;;;;;;4853829;29;20422;-76
2021/04/03 05:10:13;;;;;;;2.92;2.63;;;3.00;99.90;;;;;;4810975;29;20412;-77
2021/04/03 05:12:39;;;;;;;3.10;2.80;;;3.00;99.90;;;;;;4806212;29;20506;-76
2021/04/03 05:15:05;;;;;;;3.92;2.72;;;3.00;99.90;;;;;;4838271;29;20426;-76
2021/04/03 05:17:31;;;;;;;3.50;2.60;;;3.00;99.90;;;;;;4819768;29;20491;-76
2021/04/03 05:19:57;;;;;;;3.40;2.70;;;3.00;99.90;;;;;;4837925;29;20937;-76
2021/04/03 05:22:22;;;;;;;4.20;2.50;;;3.10;99.90;;;;;;4843160;29;20439;-75
2021/04/03 05:24:48;;;;;;;3.90;2.58;;;3.10;99.90;;;;;;4839102;29;20478;-76
2021/04/03 05:27:14;;;;;;;4.38;2.65;;;3.10;99.90;;;;;;4830721;29;20422;-77
2021/04/03 05:29:39;;;;;;;3.00;2.70;;;3.10;99.90;;;;;;4830960;29;20880;-76
2021/04/03 05:32:05;;;;;;;3.70;2.80;;;3.20;99.90;;;;;;4836972;29;20452;-76
2021/04/03 05:34:31;;;;;;;3.17;2.88;;;3.20;99.90;;;;;;4837551;29;20416;-76
2021/04/03 05:36:57;;;;;;;5.05;3.08;;;3.30;99.90;;;;;;4819998;29;20424;-77
2021/04/03 05:39:22;;;;;;;4.22;3.33;;;3.40;99.90;;;;;;4825629;29;20929;-75
2021/04/03 05:41:48;;;;;;;2.83;2.63;;;3.40;99.90;;;;;;4827482;29;20412;-76
2021/04/03 05:44:14;;;;;;;3.27;2.97;;;3.50;99.90;;;;;;4792838;29;20436;-75
2021/04/03 05:46:40;;;;;;;4.18;3.08;;;3.50;99.90;;;;;;4831385;29;20448;-75
2021/04/03 05:49:06;;;;;;;3.08;2.78;;;3.50;99.90;;;;;;4818327;29;20956;-75
2021/04/03 05:51:31;;;;;;;4.05;2.80;;;3.60;99.90;;;;;;4820777;29;20419;-74
2021/04/03 05:54:00;;;;;;;3.37;3.03;;;3.70;99.90;;;;;;4828577;29;20501;-77
2021/04/03 05:56:27;;;;;;;4.50;3.45;;;3.80;99.90;;;;;;4807220;29;20428;-77
2021/04/03 05:58:52;;;;;;;3.42;2.78;;;3.80;99.90;;;;;;4835639;29;20418;-76
2021/04/03 06:01:18;;;;;;;4.23;3.30;;;3.80;99.90;;;;;;4845501;29;20485;-77
2021/04/03 06:03:43;;;;;;;3.55;3.22;;;3.80;99.90;;;;;;4849850;29;20433;-77
2021/04/03 06:06:09;;;;;;;3.28;2.83;;;3.90;99.90;;;;;;4840748;29;20414;-75
2021/04/03 06:08:35;;;;;;;4.90;3.13;;;4.00;99.90;;;;;;4816938;29;20430;-75
2021/04/03 06:11:12;;;;;;;5.15;3.65;;;4.00;99.90;;;;;;4834843;29;20419;-75
2021/04/03 06:13:42;;;;;;;4.13;3.08;;;4.10;99.90;;;;;;4841480;29;20863;-75
2021/04/03 06:16:30;;;;;;;3.30;3.00;;;4.10;99.90;;;;;;4854365;29;20427;-79
2021/04/03 06:19:18;;;;;;;4.10;3.58;;;4.00;99.90;;;;;;4802532;29;20853;-78
2021/04/03 06:21:53;;;;;;;4.50;3.00;;;4.00;99.90;;;;;;4860552;29;20420;-79
2021/04/03 06:24:26;;;;;;;4.15;3.35;;;4.10;99.90;;;;;;4870276;29;20450;-78
2021/04/03 06:26:56;;;;;;;4.68;3.15;;;4.20;99.90;;;;;;4863040;29;20418;-78
2021/04/03 06:29:32;;;;;;;4.88;3.03;;;4.30;99.90;;;;;;4843711;29;20426;-77
2021/04/03 06:31:58;;;;;;;3.78;3.30;;;4.40;99.90;;;;;;4872213;29;20548;-79
2021/04/03 06:34:29;;;;;;;3.88;3.38;;;4.50;99.90;;;;;;4828908;29;20398;-77
2021/04/03 06:36:54;;;;;;;4.05;3.50;;;4.60;99.90;;;;;;4858612;29;20406;-77
2021/04/03 06:39:21;;;;;;;4.05;3.45;;;4.60;99.90;;;;;;4840858;29;20421;-77
2021/04/03 06:41:46;;;;;;;5.15;3.75;;;4.60;99.90;;;;;;4840813;29;20416;-77
2021/04/03 06:44:12;;;;;;;3.20;3.00;;;4.60;99.90;;;;;;4855919;29;20961;-76
2021/04/03 06:46:46;;;;;;;3.58;3.10;;;4.70;99.90;;;;;;4853918;29;20431;-77
2021/04/03 06:49:14;;;;;;;4.45;3.40;;;4.60;99.90;;;;;;4863234;29;20386;-78
2021/04/03 06:51:40;;;;;;;3.72;3.20;;;4.60;99.90;;;;;;4857822;29;20412;-78
2021/04/03 06:54:07;;;;;;;3.40;3.10;;;4.70;99.90;;;;;;4871763;29;20418;-77
2021/04/03 06:56:36;;;;;;;7.57;3.28;;;4.70;99.90;;;;;;4854560;29;20392;-77
2021/04/03 06:59:12;;;;;;;6.13;4.00;;;4.90;99.90;;;;;;4861757;29;20488;-80
2021/04/03 07:01:56;;;;;;;3.63;3.20;;;4.90;99.90;;;;;;4856978;29;20438;-78
2021/04/03 07:04:42;;;;;;;2.95;2.65;;;5.00;99.90;;;;;;4859319;29;20933;-76
2021/04/03 07:07:08;;;;;;;2.90;2.63;;;5.20;99.90;;;;;;4823746;29;20448;-76
2021/04/03 07:09:34;;;;;;;4.20;2.83;;;5.40;99.90;;;;;;4827435;29;20802;-76
2021/04/03 07:12:00;;;;;;;2.85;2.55;;;5.50;99.90;;;;;;4820142;29;20533;-76
2021/04/03 07:14:25;;;;;;;2.83;2.63;;;5.60;99.90;;;;;;4845187;29;20426;-76
2021/04/03 07:16:51;;;;;;;2.65;2.40;;;5.50;99.90;;;;;;4843498;29;20416;-77
2021/04/03 07:19:18;;;;;;;3.60;2.87;;;5.80;99.90;;;;;;4815532;29;20408;-76
2021/04/03 07:21:44;;;;;;;2.70;2.50;;;5.80;99.90;;;;;;4829789;29;20412;-76
2021/04/03 07:24:11;;;;;;;2.80;2.43;;;5.90;99.90;;;;;;4851527;29;20517;-77
2021/04/03 07:26:38;;;;;;;2.42;2.22;;;6.20;99.90;;;;;;4818484;29;20443;-76
2021/04/03 07:29:03;;;;;;;2.60;2.40;;;6.20;99.90;;;;;;4819705;29;20424;-76
2021/04/03 07:31:39;;;;;;;2.97;2.20;;;6.30;99.90;;;;;;4817998;29;20439;-76
2021/04/03 07:34:05;;;;;;;2.30;2.10;;;6.40;99.90;;;;;;4834799;29;20439;-76
2021/04/03 07:36:39;;;;;;;2.20;1.98;;;6.50;99.90;;;;;;4836858;29;20796;-77
2021/04/03 07:39:28;;;;;;;2.05;1.90;;;6.70;99.90;;;;;;4847239;29;20418;-77
2021/04/03 07:41:53;;;;;;;1.80;1.70;;;6.80;99.90;;;;;;4832473;29;20484;-77
2021/04/03 07:44:19;;;;;;;2.40;2.20;;;7.00;99.90;;;;;;4832688;29;20420;-77
2021/04/03 07:46:46;;;;;;;2.33;2.20;;;7.00;99.90;;;;;;4796594;29;20435;-78
2021/04/03 07:49:30;;;;;;;2.63;2.10;;;7.10;99.90;;;;;;4804592;29;20420;-76
2021/04/03 07:51:56;;;;;;;2.97;2.05;;;7.30;99.90;;;;;;4841812;29;20449;-76
2021/04/03 07:54:27;;;;;;;2.30;2.00;;;7.20;99.90;;;;;;4837147;29;20420;-77
2021/04/03 07:56:57;;;;;;;2.35;2.15;;;7.30;99.90;;;;;;4832296;29;20438;-76
2021/04/03 07:59:46;;;;;;;1.85;1.75;;;7.20;99.90;;;;;;4816474;29;20506;-76
2021/04/03 08:02:14;;;;;;;2.03;1.92;;;7.20;99.90;;;;;;4841438;29;20422;-76
2021/04/03 08:04:39;;;;;;;2.13;1.95;;;7.20;99.90;;;;;;4804220;29;20411;-75
2021/04/03 08:07:05;;;;;;;2.03;1.93;;;7.10;99.90;;;;;;4820302;29;20406;-75
2021/04/03 08:09:32;;;;;;;2.80;2.43;;;7.20;99.90;;;;;;4827955;29;20422;-76
2021/04/03 08:11:57;;;;;;;1.77;1.67;;;7.30;99.90;;;;;;4838030;29;20418;-76
2021/04/03 08:14:25;;;;;;;3.63;2.00;;;7.50;99.90;;;;;;4814356;29;20427;-75
2021/04/03 08:16:51;;;;;;;2.13;1.92;;;7.40;99.90;;;;;;4826341;29;20412;-75
2021/04/03 08:19:17;;;;;;;1.90;1.80;;;7.40;99.90;;;;;;4834634;29;20426;-75
2021/04/03 08:21:47;;;;;;;2.17;2.03;;;7.50;99.90;;;;;;4815546;29;20471;-75
2021/04/03 08:24:15;;;;;;;2.13;1.97;;;7.50;99.90;;;;;;4837204;29;20438;-75
2021/04/03 08:26:41;;;;;;;2.13;1.73;;;7.50;99.90;;;;;;4816338;29;20490;-76
2021/04/03 08:29:07;;;;;;;1.65;1.52;;;7.50;99.90;;;;;;4840451;29;20517;-78
2021/04/03 08:31:34;;;;;;;2.40;1.73;;;7.70;99.90;;;;;;4827881;29;20425;-77
2021/04/03 08:34:05;;;;;;;2.50;2.30;;;7.80;99.90;;;;;;4858347;29;20418;-77
2021/04/03 08:36:33;;;;;;;4.35;3.13;;;7.80;99.90;;;;;;4791099;29;20410;-77
2021/04/03 08:39:06;;;;;;;3.90;2.53;;;7.80;99.90;;;;;;4810598;29;20446;-78
2021/04/03 08:41:32;;;;;;;1.50;1.40;;;8.00;99.90;;;;;;4812173;29;20990;-78
2021/04/03 08:43:57;;;;;;;3.58;1.58;;;8.10;99.90;;;;;;4835000;29;20454;-78
2021/04/03 08:46:24;;;;;;;1.70;1.60;;;8.30;99.90;;;;;;4851448;29;20431;-77
2021/04/03 08:48:57;;;;;;;1.60;1.50;;;8.50;99.90;;;;;;4819335;29;20511;-77
2021/04/03 08:51:24;;;;;;;1.50;1.40;;;8.60;99.90;;;;;;4856515;29;20445;-78
2021/04/03 08:53:51;;;;;;;3.90;2.80;;;8.90;99.90;;;;;;4855570;29;20422;-77
2021/04/03 08:56:23;;;;;;;1.70;1.58;;;8.90;99.90;;;;;;4815892;29;20511;-76
2021/04/03 08:58:49;;;;;;;1.42;1.33;;;8.50;99.90;;;;;;4854032;29;20420;-75
2021/04/03 09:01:15;;;;;;;3.70;1.40;;;8.30;99.90;;;;;;4823399;29;20479;-76
2021/04/03 09:03:40;;;;;;;1.43;1.33;;;8.30;99.90;;;;;;4821611;29;20420;-76
2021/04/03 09:06:06;;;;;;;3.30;1.90;;;8.20;99.90;;;;;;4845851;29;20414;-76
2021/04/03 09:08:32;;;;;;;1.53;1.43;;;8.20;99.90;;;;;;4825967;29;20440;-77
2021/04/03 09:11:02;;;;;;;1.90;1.77;;;8.10;99.90;;;;;;4832650;29;20403;-77
2021/04/03 09:13:39;;;;;;;1.80;1.70;;;8.20;99.90;;;;;;4835765;29;20412;-76
2021/04/03 09:16:12;;;;;;;1.10;1.10;;;8.30;99.90;;;;;;4855317;29;20486;-75
2021/04/03 09:18:44;;;;;;;1.30;1.20;;;8.60;99.90;;;;;;4833898;29;20416;-76
2021/04/03 09:21:22;;;;;;;1.20;1.10;;;8.70;99.90;;;;;;4823554;29;20930;-75
2021/04/03 09:23:51;;;;;;;1.48;1.38;;;8.60;99.90;;;;;;4817022;29;20429;-76
2021/04/03 09:26:21;;;;;;;1.20;1.10;;;8.70;99.90;;;;;;4823409;29;20822;-76
2021/04/03 09:28:46;;;;;;;1.63;1.40;;;8.80;99.90;;;;;;4815571;29;20427;-77
2021/04/03 09:31:12;;;;;;;1.50;1.20;;;9.00;99.90;;;;;;4838407;29;20897;-76
2021/04/03 09:33:47;;;;;;;2.13;1.92;;;9.20;99.90;;;;;;4826410;29;21405;-77
2021/04/03 09:36:15;;;;;;;1.40;1.30;;;9.40;99.90;;;;;;4810718;29;20433;-79
2021/04/03 09:38:40;;;;;;;12.73;8.20;;;9.60;99.90;;;;;;4813776;29;20433;-76
2021/04/03 09:41:19;;;;;;;4.57;4.13;;;9.50;99.90;;;;;;4846203;29;20421;-77
2021/04/03 09:43:45;;;;;;;234.40;167.10;;;9.00;99.90;;;;;;4863181;29;20456;-77
2021/04/03 09:46:11;;;;;;;75.87;48.63;;;8.90;99.90;;;;;;4825725;29;20447;-77
2021/04/03 09:48:36;;;;;;;92.57;63.47;;;8.90;99.90;;;;;;4841569;29;20428;-76
2021/04/03 09:51:06;;;;;;;13.38;9.68;;;9.00;99.90;;;;;;4821393;29;20422;-76
2021/04/03 09:53:31;;;;;;;2.45;1.88;;;9.30;99.90;;;;;;4833058;29;20451;-77
2021/04/03 09:55:57;;;;;;;15.17;8.87;;;9.80;99.90;;;;;;4843780;29;20466;-77
2021/04/03 09:58:23;;;;;;;4.10;2.90;;;10.10;99.90;;;;;;4836407;29;20507;-77
2021/04/03 10:00:48;;;;;;;1.60;1.35;;;10.10;99.90;;;;;;4839625;29;20423;-77
2021/04/03 10:03:14;;;;;;;42.80;32.43;;;10.00;99.90;;;;;;4823586;29;20416;-78
2021/04/03 10:05:40;;;;;;;138.98;113.80;;;10.00;99.90;;;;;;4824099;29;20432;-78
2021/04/03 10:08:05;;;;;;;19.30;14.17;;;10.00;99.90;;;;;;4826518;29;20423;-79
2021/04/03 10:10:31;;;;;;;17.17;13.85;;;9.60;99.90;;;;;;4855488;29;20521;-78
2021/04/03 10:12:57;;;;;;;41.90;22.73;;;9.60;99.90;;;;;;4836199;29;20424;-78
2021/04/03 10:15:23;;;;;;;6.17;5.40;;;9.50;99.50;;;;;;4817371;29;20419;-77
2021/04/03 10:17:49;;;;;;;1.65;1.55;;;9.30;99.90;;;;;;4821393;29;20418;-78
2021/04/03 10:20:15;;;;;;;1.10;1.00;;;9.50;99.90;;;;;;4833018;29;20483;-79
2021/04/03 10:22:40;;;;;;;3.13;2.50;;;9.70;99.90;;;;;;4839467;29;20428;-77
2021/04/03 10:25:07;;;;;;;3.30;3.00;;;9.60;99.90;;;;;;4835734;29;20414;-77
2021/04/03 10:27:32;;;;;;;5.80;4.53;;;9.40;99.90;;;;;;4827451;29;20432;-76
2021/04/03 10:29:58;;;;;;;52.87;35.47;;;9.40;99.90;;;;;;4847666;29;20471;-77
2021/04/03 10:32:23;;;;;;;2.50;2.30;;;9.50;99.90;;;;;;4821135;29;20476;-76
2021/04/03 10:34:49;;;;;;;3.33;3.07;;;9.20;99.00;;;;;;4834641;29;20492;-76
2021/04/03 10:37:15;;;;;;;63.77;51.17;;;8.90;99.20;;;;;;4831476;29;20568;-77
2021/04/03 10:39:40;;;;;;;49.63;37.55;;;8.80;99.70;;;;;;4818309;29;20455;-76
2021/04/03 10:42:07;;;;;;;5.30;4.00;;;8.80;99.90;;;;;;4849992;29;20400;-76
2021/04/03 10:44:33;;;;;;;4.78;4.22;;;9.00;99.90;;;;;;4847244;29;20420;-77
2021/04/03 10:46:58;;;;;;;14.13;9.93;;;9.30;99.90;;;;;;4837068;29;20419;-79
2021/04/03 10:49:24;;;;;;;1.73;1.63;;;9.70;99.90;;;;;;4838179;29;20437;-77
2021/04/03 10:51:50;;;;;;;3.50;1.53;;;9.90;99.90;;;;;;4824980;29;20500;-77
2021/04/03 10:54:18;;;;;;;3.47;1.88;;;9.70;99.70;;;;;;4818109;29;20412;-77
2021/04/03 10:56:44;;;;;;;1.20;1.20;;;9.40;99.90;;;;;;4828729;29;20430;-78
2021/04/03 10:59:10;;;;;;;1.77;1.13;;;9.30;99.90;;;;;;4834053;29;20416;-78
2021/04/03 11:01:35;;;;;;;1.10;1.10;;;9.40;99.90;;;;;;4818504;29;20441;-78
2021/04/03 11:04:01;;;;;;;2.10;1.60;;;9.20;99.90;;;;;;4804947;29;20404;-77
2021/04/03 11:06:27;;;;;;;1.67;1.55;;;9.20;99.90;;;;;;4803700;29;20931;-77
2021/04/03 11:08:52;;;;;;;2.90;1.23;;;9.20;99.90;;;;;;4821413;29;20465;-77
2021/04/03 11:11:18;;;;;;;1.07;1.07;;;9.10;99.90;;;;;;4838904;29;21104;-77
2021/04/03 11:13:44;;;;;;;32.40;13.35;;;9.10;99.90;;;;;;4838970;29;20437;-78
2021/04/03 11:16:10;;;;;;;94.53;42.17;;;9.20;99.90;;;;;;4815581;29;20422;-78
2021/04/03 11:18:35;;;;;;;121.37;60.53;;;9.20;99.90;;;;;;4821247;29;20438;-78
2021/04/03 11:21:01;;;;;;;69.22;34.45;;;9.20;99.90;;;;;;4811955;29;20423;-77
2021/04/03 11:23:27;;;;;;;39.03;23.50;;;9.00;99.90;;;;;;4815780;29;20416;-77
2021/04/03 11:25:52;;;;;;;10.95;7.57;;;8.70;99.90;;;;;;4834982;29;20430;-78
2021/04/03 11:28:18;;;;;;;23.15;12.82;;;8.70;99.90;;;;;;4817963;29;20415;-76
2021/04/03 11:30:44;;;;;;;186.73;113.87;;;8.70;99.90;;;;;;4866010;29;20418;-78
2021/04/03 11:33:09;;;;;;;29.88;18.20;;;8.70;99.90;;;;;;4840615;29;20454;-77
2021/04/03 11:35:36;;;;;;;34.35;23.73;;;8.90;99.90;;;;;;4817537;29;20434;-79
2021/04/03 11:38:02;;;;;;;81.43;60.67;;;9.00;99.90;;;;;;4838700;29;20426;-77
2021/04/03 11:40:28;;;;;;;42.58;31.75;;;8.80;99.90;;;;;;4818968;29;20417;-77
2021/04/03 11:42:57;;;;;;;45.13;32.60;;;8.70;99.90;;;;;;4837956;29;20427;-77
2021/04/03 11:45:23;;;;;;;3.70;3.07;;;8.70;99.90;;;;;;4838656;29;20410;-78
2021/04/03 11:47:49;;;;;;;14.05;7.75;;;8.90;99.90;;;;;;4811263;29;21049;-78
2021/04/03 11:50:15;;;;;;;0.88;0.88;;;9.00;99.90;;;;;;4817115;29;20496;-78
2021/04/03 11:52:41;;;;;;;1.02;0.90;;;8.90;99.90;;;;;;4826537;29;20418;-78
2021/04/03 11:55:09;;;;;;;0.82;0.82;;;8.60;99.90;;;;;;4816211;29;20560;-78
2021/04/03 11:57:35;;;;;;;0.90;0.90;;;8.70;99.90;;;;;;4788699;29;20550;-79
2021/04/03 12:00:04;;;;;;;0.70;0.70;;;8.50;99.90;;;;;;4802115;29;20428;-78
2021/04/03 12:02:32;;;;;;;0.85;0.80;;;8.60;99.90;;;;;;4797059;29;20410;-78
2021/04/03 12:04:57;;;;;;;0.80;0.80;;;9.00;99.90;;;;;;4864396;29;20482;-78
2021/04/03 12:07:24;;;;;;;0.90;0.90;;;9.10;99.90;;;;;;4831902;29;20426;-78
2021/04/03 12:09:49;;;;;;;0.80;0.80;;;9.00;99.90;;;;;;4833584;29;20412;-78
2021/04/03 12:12:15;;;;;;;1.17;1.08;;;9.00;99.90;;;;;;4846640;29;20873;-78
2021/04/03 12:14:41;;;;;;;1.03;0.80;;;8.90;99.90;;;;;;4833945;29;20424;-78
2021/04/03 12:17:06;;;;;;;1.23;1.00;;;9.20;99.90;;;;;;4804535;29;20423;-77
2021/04/03 12:19:32;;;;;;;0.90;0.90;;;9.40;99.40;;;;;;4819668;29;20422;-77
2021/04/03 12:21:58;;;;;;;1.70;1.57;;;9.20;95.40;;;;;;4829285;29;20419;-78
2021/04/03 12:24:23;;;;;;;1.20;1.20;;;9.40;96.40;;;;;;4845677;29;20509;-79
2021/04/03 12:26:49;;;;;;;0.80;0.80;;;10.40;98.60;;;;;;4823006;29;20500;-78
2021/04/03 12:29:15;;;;;;;1.20;1.15;;;11.00;95.20;;;;;;4819559;29;20443;-78
2021/04/03 12:31:40;;;;;;;2.10;1.30;;;11.00;88.10;;;;;;4833758;29;20410;-78
2021/04/03 12:34:06;;;;;;;1.30;1.20;;;10.80;86.90;;;;;;4809155;29;20442;-79
2021/04/03 12:36:32;;;;;;;2.58;1.30;;;10.80;83.50;;;;;;4824608;29;20491;-78
2021/04/03 12:38:57;;;;;;;1.20;1.10;;;11.20;84.60;;;;;;4811643;29;21231;-78
2021/04/03 12:41:23;;;;;;;1.58;1.30;;;11.20;83.10;;;;;;4823325;29;20422;-78
2021/04/03 12:43:49;;;;;;;1.10;1.07;;;11.20;82.30;;;;;;4823998;29;20997;-78
2021/04/03 12:46:14;;;;;;;1.15;1.10;;;11.20;81.90;;;;;;4820270;29;20428;-79
2021/04/03 12:48:40;;;;;;;1.23;1.13;;;10.70;81.70;;;;;;4834774;29;20520;-77
2021/04/03 12:51:06;;;;;;;2.40;1.50;;;10.20;85.80;;;;;;4849854;29;21092;-78
2021/04/03 12:53:32;;;;;;;0.95;0.80;;;9.90;92.20;;;;;;4824281;29;20428;-80
2021/04/03 12:55:58;;;;;;;0.80;0.80;;;9.70;94.20;;;;;;4859342;29;20438;-82
2021/04/03 12:58:24;;;;;;;1.20;1.10;;;9.60;95.30;;;;;;4853318;29;20417;-81
2021/04/03 13:00:50;;;;;;;1.03;1.03;;;9.50;96.30;;;;;;4885288;23;20429;-77